sensor_id;sensor_type;location;lat;lon;timestamp;temperature;humidity
19813;DHT22;10066;48.108;11.448;2023-05-07T00:01:39;11.80;99.90
19813;DHT22;10066;48.108;11.448;2023-05-07T00:04:06;11.80;99.90
19813;DHT22;10066;48.108;11.448;2023-05-07T00:06:33;11.80;99.90
19813;DHT22;10066;48.108;11.448;2023-05-07T00:09:01;11.80;99.90
19813;DHT22;10066;48.108;11.448;2023-05-07T00:11:29;11.70;99.90
19813;DHT22;10066;48.108;11.448;2023-05-07T00:13:56;11.70;99.90
19813;DHT22;10066;48.108;11.448;2023-05-07T00:16:24;11.70;99.90
19813;DHT22;10066;48.108;11.448;2023-05-07T00:18:51;11.70;99.90
19813;DHT22;10066;48.108;11.448;2023-05-07T00:21:18;11.70;99.90
19813;DHT22;10066;48.108;11.448;2023-05-07T00:23:47;11.70;99.90
19813;DHT22;10066;48.108;11.448;2023-05-07T00:26:13;11.70;99.90
19813;DHT22;10066;48.108;11.448;2023-05-07T00:28:41;11.70;99.90
19813;DHT22;10066;48.108;11.448;2023-05-07T00:31:07;11.70;99.90
19813;DHT22;10066;48.108;11.448;2023-05-07T00:33:36;11.70;99.90
19813;DHT22;10066;48.108;11.448;2023-05-07T00:36:03;11.70;99.90
19813;DHT22;10066;48.108;11.448;2023-05-07T00:38:31;11.70;99.90
19813;DHT22;10066;48.108;11.448;2023-05-07T00:40:58;11.70;99.90
19813;DHT22;10066;48.108;11.448;2023-05-07T00:43:24;11.70;99.90
19813;DHT22;10066;48.108;11.448;2023-05-07T00:45:53;11.80;99.90
19813;DHT22;10066;48.108;11.448;2023-05-07T00:48:20;11.80;99.90
19813;DHT22;10066;48.108;11.448;2023-05-07T00:50:48;11.80;99.90
19813;DHT22;10066;48.108;11.448;2023-05-07T00:53:15;11.80;99.90
19813;DHT22;10066;48.108;11.448;2023-05-07T00:55:43;11.80;99.90
19813;DHT22;10066;48.108;11.448;2023-05-07T00:58:10;11.80;99.90
19813;DHT22;10066;48.108;11.448;2023-05-07T01:00:37;11.70;99.90
19813;DHT22;10066;48.108;11.448;2023-05-07T01:03:05;11.70;99.90
19813;DHT22;10066;48.108;11.448;2023-05-07T01:05:32;11.70;99.90
19813;DHT22;10066;48.108;11.448;2023-05-07T01:08:01;11.70;99.90
19813;DHT22;10066;48.108;11.448;2023-05-07T01:10:28;11.70;99.90
19813;DHT22;10066;48.108;11.448;2023-05-07T01:12:57;11.70;99.90
19813;DHT22;10066;48.108;11.448;2023-05-07T01:15:25;11.60;99.90
19813;DHT22;10066;48.108;11.448;2023-05-07T01:17:52;11.60;99.90
19813;DHT22;10066;48.108;11.448;2023-05-07T01:20:19;11.60;99.90
19813;DHT22;10066;48.108;11.448;2023-05-07T01:22:48;11.60;99.90
19813;DHT22;10066;48.108;11.448;2023-05-07T01:25:15;11.60;99.90
19813;DHT22;10066;48.108;11.448;2023-05-07T01:27:42;11.50;99.90
19813;DHT22;10066;48.108;11.448;2023-05-07T01:30:10;11.60;99.90
19813;DHT22;10066;48.108;11.448;2023-05-07T01:32:41;11.50;99.90
19813;DHT22;10066;48.108;11.448;2023-05-07T01:35:11;11.50;99.90
19813;DHT22;10066;48.108;11.448;2023-05-07T01:37:39;11.50;99.90
19813;DHT22;10066;48.108;11.448;2023-05-07T01:40:08;11.50;99.90
19813;DHT22;10066;48.108;11.448;2023-05-07T01:42:36;11.50;99.90
19813;DHT22;10066;48.108;11.448;2023-05-07T01:45:04;11.50;99.90
19813;DHT22;10066;48.108;11.448;2023-05-07T01:47:32;11.50;99.90
19813;DHT22;10066;48.108;11.448;2023-05-07T01:50:00;11.50;99.90
19813;DHT22;10066;48.108;11.448;2023-05-07T01:52:27;11.50;99.90
19813;DHT22;10066;48.108;11.448;2023-05-07T01:54:55;11.50;99.90
19813;DHT22;10066;48.108;11.448;2023-05-07T01:57:23;11.50;99.90
19813;DHT22;10066;48.108;11.448;2023-05-07T01:59:50;11.50;99.90
19813;DHT22;10066;48.108;11.448;2023-05-07T02:02:17;11.50;99.90
19813;DHT22;10066;48.108;11.448;2023-05-07T02:04:44;11.40;99.90
19813;DHT22;10066;48.108;11.448;2023-05-07T02:07:11;11.40;99.90
19813;DHT22;10066;48.108;11.448;2023-05-07T02:09:38;11.40;99.90
19813;DHT22;10066;48.108;11.448;2023-05-07T02:12:05;11.40;99.90
19813;DHT22;10066;48.108;11.448;2023-05-07T02:14:33;11.40;99.90
19813;DHT22;10066;48.108;11.448;2023-05-07T02:17:00;11.30;99.90
19813;DHT22;10066;48.108;11.448;2023-05-07T02:19:27;11.30;99.90
19813;DHT22;10066;48.108;11.448;2023-05-07T02:21:54;11.30;99.90
19813;DHT22;10066;48.108;11.448;2023-05-07T02:24:21;11.30;99.90
19813;DHT22;10066;48.108;11.448;2023-05-07T02:26:48;11.30;99.90
19813;DHT22;10066;48.108;11.448;2023-05-07T02:29:16;11.20;99.90
19813;DHT22;10066;48.108;11.448;2023-05-07T02:31:44;11.20;99.90
19813;DHT22;10066;48.108;11.448;2023-05-07T02:34:11;11.20;99.90
19813;DHT22;10066;48.108;11.448;2023-05-07T02:36:38;11.20;99.90
19813;DHT22;10066;48.108;11.448;2023-05-07T02:39:05;11.10;99.90
19813;DHT22;10066;48.108;11.448;2023-05-07T02:41:32;11.10;99.90
19813;DHT22;10066;48.108;11.448;2023-05-07T02:43:59;11.10;99.90
19813;DHT22;10066;48.108;11.448;2023-05-07T02:46:26;11.10;99.90
19813;DHT22;10066;48.108;11.448;2023-05-07T02:48:54;11.10;99.90
19813;DHT22;10066;48.108;11.448;2023-05-07T02:51:22;11.00;99.90
19813;DHT22;10066;48.108;11.448;2023-05-07T02:53:49;11.10;99.90
19813;DHT22;10066;48.108;11.448;2023-05-07T02:56:16;11.00;99.90
19813;DHT22;10066;48.108;11.448;2023-05-07T02:58:43;11.00;99.90
19813;DHT22;10066;48.108;11.448;2023-05-07T03:01:10;11.00;99.90
19813;DHT22;10066;48.108;11.448;2023-05-07T03:03:39;11.00;99.90
19813;DHT22;10066;48.108;11.448;2023-05-07T03:06:08;11.00;99.90
19813;DHT22;10066;48.108;11.448;2023-05-07T03:08:34;11.00;99.90
19813;DHT22;10066;48.108;11.448;2023-05-07T03:11:03;11.00;99.90
19813;DHT22;10066;48.108;11.448;2023-05-07T03:13:30;11.00;99.90
19813;DHT22;10066;48.108;11.448;2023-05-07T03:15:57;10.90;99.90
19813;DHT22;10066;48.108;11.448;2023-05-07T03:18:24;10.90;99.90
19813;DHT22;10066;48.108;11.448;2023-05-07T03:20:51;10.90;99.90
19813;DHT22;10066;48.108;11.448;2023-05-07T03:23:20;10.90;99.90
19813;DHT22;10066;48.108;11.448;2023-05-07T03:25:46;10.90;99.90
19813;DHT22;10066;48.108;11.448;2023-05-07T03:28:13;10.90;99.90
19813;DHT22;10066;48.108;11.448;2023-05-07T03:30:40;10.90;99.90
19813;DHT22;10066;48.108;11.448;2023-05-07T03:33:07;10.80;99.90
19813;DHT22;10066;48.108;11.448;2023-05-07T03:35:34;10.80;99.90
19813;DHT22;10066;48.108;11.448;2023-05-07T03:38:01;10.80;99.90
19813;DHT22;10066;48.108;11.448;2023-05-07T03:40:30;10.80;99.90
19813;DHT22;10066;48.108;11.448;2023-05-07T03:42:59;10.80;99.90
19813;DHT22;10066;48.108;11.448;2023-05-07T03:45:26;10.80;99.90
19813;DHT22;10066;48.108;11.448;2023-05-07T03:47:53;10.70;99.90
19813;DHT22;10066;48.108;11.448;2023-05-07T03:50:20;10.70;99.90
19813;DHT22;10066;48.108;11.448;2023-05-07T03:52:47;10.70;99.90
19813;DHT22;10066;48.108;11.448;2023-05-07T03:55:13;10.70;99.90
19813;DHT22;10066;48.108;11.448;2023-05-07T03:57:43;10.70;99.90
19813;DHT22;10066;48.108;11.448;2023-05-07T04:00:11;10.70;99.90
19813;DHT22;10066;48.108;11.448;2023-05-07T04:02:39;10.70;99.90
19813;DHT22;10066;48.108;11.448;2023-05-07T04:05:07;10.70;99.90
19813;DHT22;10066;48.108;11.448;2023-05-07T04:07:34;10.70;99.90
19813;DHT22;10066;48.108;11.448;2023-05-07T04:10:01;10.60;99.90
19813;DHT22;10066;48.108;11.448;2023-05-07T04:12:27;10.60;99.90
19813;DHT22;10066;48.108;11.448;2023-05-07T04:14:56;10.60;99.90
19813;DHT22;10066;48.108;11.448;2023-05-07T04:17:22;10.50;99.90
19813;DHT22;10066;48.108;11.448;2023-05-07T04:19:49;10.60;99.90
19813;DHT22;10066;48.108;11.448;2023-05-07T04:22:16;10.70;99.90
19813;DHT22;10066;48.108;11.448;2023-05-07T04:24:43;10.70;99.90
19813;DHT22;10066;48.108;11.448;2023-05-07T04:27:10;10.70;99.90
19813;DHT22;10066;48.108;11.448;2023-05-07T04:29:37;10.70;99.90
19813;DHT22;10066;48.108;11.448;2023-05-07T04:32:09;10.70;99.90
19813;DHT22;10066;48.108;11.448;2023-05-07T04:34:36;10.80;99.90
19813;DHT22;10066;48.108;11.448;2023-05-07T04:37:02;10.80;99.90
19813;DHT22;10066;48.108;11.448;2023-05-07T04:39:29;10.90;99.90
19813;DHT22;10066;48.108;11.448;2023-05-07T04:41:56;10.90;99.90
19813;DHT22;10066;48.108;11.448;2023-05-07T04:44:23;11.00;99.90
19813;DHT22;10066;48.108;11.448;2023-05-07T04:46:50;11.10;99.90
19813;DHT22;10066;48.108;11.448;2023-05-07T04:49:18;11.10;99.90
19813;DHT22;10066;48.108;11.448;2023-05-07T04:51:45;11.20;99.90
19813;DHT22;10066;48.108;11.448;2023-05-07T04:54:12;11.30;99.90
19813;DHT22;10066;48.108;11.448;2023-05-07T04:56:39;11.40;99.90
19813;DHT22;10066;48.108;11.448;2023-05-07T04:59:06;11.50;99.90
19813;DHT22;10066;48.108;11.448;2023-05-07T05:01:33;11.50;99.90
19813;DHT22;10066;48.108;11.448;2023-05-07T05:04:00;11.60;99.90
19813;DHT22;10066;48.108;11.448;2023-05-07T05:06:29;11.70;99.90
19813;DHT22;10066;48.108;11.448;2023-05-07T05:08:56;11.70;99.90
19813;DHT22;10066;48.108;11.448;2023-05-07T05:11:22;11.80;99.90
19813;DHT22;10066;48.108;11.448;2023-05-07T05:13:50;11.90;99.90
19813;DHT22;10066;48.108;11.448;2023-05-07T05:16:17;11.90;99.90
19813;DHT22;10066;48.108;11.448;2023-05-07T05:18:44;11.90;99.90
19813;DHT22;10066;48.108;11.448;2023-05-07T05:21:10;11.90;99.90
19813;DHT22;10066;48.108;11.448;2023-05-07T05:23:39;11.90;99.90
19813;DHT22;10066;48.108;11.448;2023-05-07T05:26:05;12.00;99.90
19813;DHT22;10066;48.108;11.448;2023-05-07T05:28:32;12.10;99.90
19813;DHT22;10066;48.108;11.448;2023-05-07T05:30:59;12.10;99.90
19813;DHT22;10066;48.108;11.448;2023-05-07T05:33:27;12.20;99.90
19813;DHT22;10066;48.108;11.448;2023-05-07T05:35:54;12.30;99.90
19813;DHT22;10066;48.108;11.448;2023-05-07T05:38:21;12.40;99.90
19813;DHT22;10066;48.108;11.448;2023-05-07T05:40:49;12.50;99.90
19813;DHT22;10066;48.108;11.448;2023-05-07T05:43:16;12.60;99.90
19813;DHT22;10066;48.108;11.448;2023-05-07T05:45:43;12.70;99.90
19813;DHT22;10066;48.108;11.448;2023-05-07T05:48:10;12.80;99.90
19813;DHT22;10066;48.108;11.448;2023-05-07T05:50:36;13.00;99.90
19813;DHT22;10066;48.108;11.448;2023-05-07T05:53:04;13.20;99.90
19813;DHT22;10066;48.108;11.448;2023-05-07T05:55:30;14.10;99.90
19813;DHT22;10066;48.108;11.448;2023-05-07T05:58:00;15.30;99.90
19813;DHT22;10066;48.108;11.448;2023-05-07T06:00:27;16.80;99.90
19813;DHT22;10066;48.108;11.448;2023-05-07T06:02:54;18.10;99.90
19813;DHT22;10066;48.108;11.448;2023-05-07T06:05:21;19.20;99.90
19813;DHT22;10066;48.108;11.448;2023-05-07T06:07:48;21.00;99.90
19813;DHT22;10066;48.108;11.448;2023-05-07T06:10:15;21.10;99.90
19813;DHT22;10066;48.108;11.448;2023-05-07T06:12:42;21.90;99.90
19813;DHT22;10066;48.108;11.448;2023-05-07T06:15:11;22.60;99.90
19813;DHT22;10066;48.108;11.448;2023-05-07T06:17:38;23.20;99.90
19813;DHT22;10066;48.108;11.448;2023-05-07T06:20:06;23.50;99.90
19813;DHT22;10066;48.108;11.448;2023-05-07T06:22:33;24.00;99.90
19813;DHT22;10066;48.108;11.448;2023-05-07T06:25:00;24.40;99.90
19813;DHT22;10066;48.108;11.448;2023-05-07T06:27:27;24.80;99.90
19813;DHT22;10066;48.108;11.448;2023-05-07T06:29:54;25.10;99.90
19813;DHT22;10066;48.108;11.448;2023-05-07T06:34:49;25.30;99.90
19813;DHT22;10066;48.108;11.448;2023-05-07T06:37:16;25.30;99.90
19813;DHT22;10066;48.108;11.448;2023-05-07T06:39:43;24.90;99.90
19813;DHT22;10066;48.108;11.448;2023-05-07T06:42:10;24.20;99.90
19813;DHT22;10066;48.108;11.448;2023-05-07T06:44:37;23.20;99.90
19813;DHT22;10066;48.108;11.448;2023-05-07T06:47:04;22.20;99.90
19813;DHT22;10066;48.108;11.448;2023-05-07T06:49:33;21.40;99.90
19813;DHT22;10066;48.108;11.448;2023-05-07T06:52:00;20.70;99.90
19813;DHT22;10066;48.108;11.448;2023-05-07T06:54:27;20.20;99.90
19813;DHT22;10066;48.108;11.448;2023-05-07T06:56:54;19.90;99.90
19813;DHT22;10066;48.108;11.448;2023-05-07T06:59:20;19.50;99.90
19813;DHT22;10066;48.108;11.448;2023-05-07T07:01:47;19.20;99.90
19813;DHT22;10066;48.108;11.448;2023-05-07T07:04:14;19.00;99.90
19813;DHT22;10066;48.108;11.448;2023-05-07T07:06:43;18.80;99.90
19813;DHT22;10066;48.108;11.448;2023-05-07T07:09:10;18.70;99.90
19813;DHT22;10066;48.108;11.448;2023-05-07T07:11:37;18.60;99.90
19813;DHT22;10066;48.108;11.448;2023-05-07T07:14:04;18.50;99.90
19813;DHT22;10066;48.108;11.448;2023-05-07T07:16:31;18.50;99.90
19813;DHT22;10066;48.108;11.448;2023-05-07T07:18:58;18.50;99.90
19813;DHT22;10066;48.108;11.448;2023-05-07T07:21:25;18.50;99.90
19813;DHT22;10066;48.108;11.448;2023-05-07T07:23:53;18.50;99.90
19813;DHT22;10066;48.108;11.448;2023-05-07T07:26:21;18.60;99.90
19813;DHT22;10066;48.108;11.448;2023-05-07T07:28:48;18.60;99.90
19813;DHT22;10066;48.108;11.448;2023-05-07T07:31:15;18.70;99.90
19813;DHT22;10066;48.108;11.448;2023-05-07T07:33:42;18.80;99.90
19813;DHT22;10066;48.108;11.448;2023-05-07T07:36:09;18.80;99.90
19813;DHT22;10066;48.108;11.448;2023-05-07T07:38:36;18.90;99.90
19813;DHT22;10066;48.108;11.448;2023-05-07T07:41:04;18.90;99.90
19813;DHT22;10066;48.108;11.448;2023-05-07T07:43:31;19.00;99.90
19813;DHT22;10066;48.108;11.448;2023-05-07T07:45:57;19.00;99.90
19813;DHT22;10066;48.108;11.448;2023-05-07T07:48:24;18.90;99.90
19813;DHT22;10066;48.108;11.448;2023-05-07T07:50:51;18.90;99.90
19813;DHT22;10066;48.108;11.448;2023-05-07T07:53:18;18.90;99.90
19813;DHT22;10066;48.108;11.448;2023-05-07T07:55:45;18.80;99.90
19813;DHT22;10066;48.108;11.448;2023-05-07T07:58:14;18.90;99.90
19813;DHT22;10066;48.108;11.448;2023-05-07T08:00:41;18.80;99.90
19813;DHT22;10066;48.108;11.448;2023-05-07T08:03:09;18.80;99.90
19813;DHT22;10066;48.108;11.448;2023-05-07T08:05:36;18.80;99.90
19813;DHT22;10066;48.108;11.448;2023-05-07T08:08:04;18.90;99.90
19813;DHT22;10066;48.108;11.448;2023-05-07T08:10:31;19.00;99.90
19813;DHT22;10066;48.108;11.448;2023-05-07T08:13:00;19.00;99.90
19813;DHT22;10066;48.108;11.448;2023-05-07T08:15:28;19.10;99.90
19813;DHT22;10066;48.108;11.448;2023-05-07T08:17:55;19.20;99.90
19813;DHT22;10066;48.108;11.448;2023-05-07T08:20:22;19.20;99.90
19813;DHT22;10066;48.108;11.448;2023-05-07T08:22:49;19.30;99.90
19813;DHT22;10066;48.108;11.448;2023-05-07T08:25:17;19.30;99.90
19813;DHT22;10066;48.108;11.448;2023-05-07T08:27:44;19.30;99.90
19813;DHT22;10066;48.108;11.448;2023-05-07T08:30:14;19.40;99.90
19813;DHT22;10066;48.108;11.448;2023-05-07T08:32:43;19.50;99.90
19813;DHT22;10066;48.108;11.448;2023-05-07T08:35:10;19.60;99.90
19813;DHT22;10066;48.108;11.448;2023-05-07T08:37:37;19.60;99.90
19813;DHT22;10066;48.108;11.448;2023-05-07T08:40:05;19.60;99.90
19813;DHT22;10066;48.108;11.448;2023-05-07T08:42:35;19.60;99.90
19813;DHT22;10066;48.108;11.448;2023-05-07T08:45:04;19.80;99.90
19813;DHT22;10066;48.108;11.448;2023-05-07T08:47:42;19.90;99.90
19813;DHT22;10066;48.108;11.448;2023-05-07T08:50:12;20.00;99.90
19813;DHT22;10066;48.108;11.448;2023-05-07T08:52:39;20.10;99.90
19813;DHT22;10066;48.108;11.448;2023-05-07T08:55:07;20.20;99.90
19813;DHT22;10066;48.108;11.448;2023-05-07T08:57:35;20.40;99.90
19813;DHT22;10066;48.108;11.448;2023-05-07T09:00:02;20.50;99.90
19813;DHT22;10066;48.108;11.448;2023-05-07T09:02:29;20.60;99.90
19813;DHT22;10066;48.108;11.448;2023-05-07T09:04:56;20.60;99.90
19813;DHT22;10066;48.108;11.448;2023-05-07T09:07:25;20.60;99.90
19813;DHT22;10066;48.108;11.448;2023-05-07T09:09:52;20.60;99.90
19813;DHT22;10066;48.108;11.448;2023-05-07T09:12:19;20.70;99.90
19813;DHT22;10066;48.108;11.448;2023-05-07T09:14:46;20.80;99.90
19813;DHT22;10066;48.108;11.448;2023-05-07T09:17:13;20.90;99.90
19813;DHT22;10066;48.108;11.448;2023-05-07T09:19:43;21.00;99.90
19813;DHT22;10066;48.108;11.448;2023-05-07T09:22:11;21.00;99.90
19813;DHT22;10066;48.108;11.448;2023-05-07T09:24:39;21.10;99.90
19813;DHT22;10066;48.108;11.448;2023-05-07T09:27:07;21.10;99.90
19813;DHT22;10066;48.108;11.448;2023-05-07T09:29:35;21.20;99.90
19813;DHT22;10066;48.108;11.448;2023-05-07T09:32:03;21.10;99.90
19813;DHT22;10066;48.108;11.448;2023-05-07T09:34:30;21.10;99.90
19813;DHT22;10066;48.108;11.448;2023-05-07T09:36:58;21.20;99.90
19813;DHT22;10066;48.108;11.448;2023-05-07T09:39:26;21.30;99.90
19813;DHT22;10066;48.108;11.448;2023-05-07T09:41:54;21.40;99.90
19813;DHT22;10066;48.108;11.448;2023-05-07T09:44:24;21.30;99.90
19813;DHT22;10066;48.108;11.448;2023-05-07T09:46:54;21.40;99.90
19813;DHT22;10066;48.108;11.448;2023-05-07T09:49:23;21.50;99.90
19813;DHT22;10066;48.108;11.448;2023-05-07T09:51:52;21.60;99.90
19813;DHT22;10066;48.108;11.448;2023-05-07T09:54:19;21.60;99.90
19813;DHT22;10066;48.108;11.448;2023-05-07T09:56:48;21.60;99.90
19813;DHT22;10066;48.108;11.448;2023-05-07T09:59:16;21.70;99.90
19813;DHT22;10066;48.108;11.448;2023-05-07T10:01:44;21.80;99.90
19813;DHT22;10066;48.108;11.448;2023-05-07T10:04:12;21.90;99.90
19813;DHT22;10066;48.108;11.448;2023-05-07T10:06:39;22.00;99.90
19813;DHT22;10066;48.108;11.448;2023-05-07T10:09:07;22.20;99.90
19813;DHT22;10066;48.108;11.448;2023-05-07T10:11:35;22.30;99.90
19813;DHT22;10066;48.108;11.448;2023-05-07T10:14:03;22.30;99.90
19813;DHT22;10066;48.108;11.448;2023-05-07T10:16:33;22.40;99.90
19813;DHT22;10066;48.108;11.448;2023-05-07T10:19:02;22.30;99.90
19813;DHT22;10066;48.108;11.448;2023-05-07T10:21:30;22.20;99.90
19813;DHT22;10066;48.108;11.448;2023-05-07T10:23:59;22.10;99.90
19813;DHT22;10066;48.108;11.448;2023-05-07T10:26:28;22.00;99.90
19813;DHT22;10066;48.108;11.448;2023-05-07T10:29:01;21.90;99.90
19813;DHT22;10066;48.108;11.448;2023-05-07T10:31:44;21.80;99.90
19813;DHT22;10066;48.108;11.448;2023-05-07T10:34:21;21.80;99.80
19813;DHT22;10066;48.108;11.448;2023-05-07T10:36:50;21.90;99.90
19813;DHT22;10066;48.108;11.448;2023-05-07T10:39:19;22.00;99.90
19813;DHT22;10066;48.108;11.448;2023-05-07T10:41:46;22.00;99.90
19813;DHT22;10066;48.108;11.448;2023-05-07T10:44:25;21.90;99.20
19813;DHT22;10066;48.108;11.448;2023-05-07T10:47:06;21.80;96.50
19813;DHT22;10066;48.108;11.448;2023-05-07T10:49:35;21.70;98.80
19813;DHT22;10066;48.108;11.448;2023-05-07T10:52:13;21.70;99.90
19813;DHT22;10066;48.108;11.448;2023-05-07T10:54:41;21.60;97.90
19813;DHT22;10066;48.108;11.448;2023-05-07T10:57:33;21.60;99.90
19813;DHT22;10066;48.108;11.448;2023-05-07T11:00:02;21.50;97.70
19813;DHT22;10066;48.108;11.448;2023-05-07T11:03:08;21.40;99.90
19813;DHT22;10066;48.108;11.448;2023-05-07T11:05:36;21.40;99.00
19813;DHT22;10066;48.108;11.448;2023-05-07T11:08:04;21.40;99.90
19813;DHT22;10066;48.108;11.448;2023-05-07T11:10:51;21.30;99.90
19813;DHT22;10066;48.108;11.448;2023-05-07T11:13:19;21.30;99.40
19813;DHT22;10066;48.108;11.448;2023-05-07T11:16:17;21.30;99.90
19813;DHT22;10066;48.108;11.448;2023-05-07T11:18:48;21.30;99.90
19813;DHT22;10066;48.108;11.448;2023-05-07T11:21:32;21.20;99.90
19813;DHT22;10066;48.108;11.448;2023-05-07T11:24:00;21.20;99.90
19813;DHT22;10066;48.108;11.448;2023-05-07T11:26:29;21.20;99.90
19813;DHT22;10066;48.108;11.448;2023-05-07T11:28:57;21.30;99.90
19813;DHT22;10066;48.108;11.448;2023-05-07T11:31:27;21.30;99.90
19813;DHT22;10066;48.108;11.448;2023-05-07T11:33:57;21.40;99.90
19813;DHT22;10066;48.108;11.448;2023-05-07T11:36:24;21.50;99.90
19813;DHT22;10066;48.108;11.448;2023-05-07T11:38:52;21.50;99.90
19813;DHT22;10066;48.108;11.448;2023-05-07T11:41:19;21.50;99.90
19813;DHT22;10066;48.108;11.448;2023-05-07T11:43:54;21.60;99.90
19813;DHT22;10066;48.108;11.448;2023-05-07T11:46:22;21.60;99.90
19813;DHT22;10066;48.108;11.448;2023-05-07T11:48:49;21.70;99.90
19813;DHT22;10066;48.108;11.448;2023-05-07T11:51:20;21.70;99.90
19813;DHT22;10066;48.108;11.448;2023-05-07T11:53:48;21.70;99.90
19813;DHT22;10066;48.108;11.448;2023-05-07T11:56:16;21.70;99.90
19813;DHT22;10066;48.108;11.448;2023-05-07T11:58:44;21.70;99.90
19813;DHT22;10066;48.108;11.448;2023-05-07T12:01:14;21.70;99.90
19813;DHT22;10066;48.108;11.448;2023-05-07T12:03:42;21.70;99.90
19813;DHT22;10066;48.108;11.448;2023-05-07T12:06:11;21.80;99.90
19813;DHT22;10066;48.108;11.448;2023-05-07T12:08:41;21.90;99.90
19813;DHT22;10066;48.108;11.448;2023-05-07T12:11:09;21.90;99.90
19813;DHT22;10066;48.108;11.448;2023-05-07T12:13:37;21.90;99.90
19813;DHT22;10066;48.108;11.448;2023-05-07T12:16:05;21.90;99.90
19813;DHT22;10066;48.108;11.448;2023-05-07T12:18:33;21.90;99.90
19813;DHT22;10066;48.108;11.448;2023-05-07T12:21:01;22.00;99.40
19813;DHT22;10066;48.108;11.448;2023-05-07T12:23:28;22.00;99.90
19813;DHT22;10066;48.108;11.448;2023-05-07T12:25:57;22.00;99.90
19813;DHT22;10066;48.108;11.448;2023-05-07T12:28:24;22.20;99.90
19813;DHT22;10066;48.108;11.448;2023-05-07T12:30:52;22.20;99.50
19813;DHT22;10066;48.108;11.448;2023-05-07T12:33:26;22.20;98.20
19813;DHT22;10066;48.108;11.448;2023-05-07T12:35:55;22.00;99.20
19813;DHT22;10066;48.108;11.448;2023-05-07T12:38:23;21.90;98.00
19813;DHT22;10066;48.108;11.448;2023-05-07T12:40:53;21.90;99.00
19813;DHT22;10066;48.108;11.448;2023-05-07T12:43:25;22.00;99.90
19813;DHT22;10066;48.108;11.448;2023-05-07T12:45:57;21.90;97.40
19813;DHT22;10066;48.108;11.448;2023-05-07T12:48:24;21.90;98.60
19813;DHT22;10066;48.108;11.448;2023-05-07T12:50:53;22.00;98.60
19813;DHT22;10066;48.108;11.448;2023-05-07T12:53:21;22.00;97.70
19813;DHT22;10066;48.108;11.448;2023-05-07T12:55:50;22.00;97.60
19813;DHT22;10066;48.108;11.448;2023-05-07T12:58:17;22.00;97.60
19813;DHT22;10066;48.108;11.448;2023-05-07T13:00:48;22.00;96.90
19813;DHT22;10066;48.108;11.448;2023-05-07T13:03:22;22.00;97.70
19813;DHT22;10066;48.108;11.448;2023-05-07T13:05:50;22.00;96.10
19813;DHT22;10066;48.108;11.448;2023-05-07T13:08:28;22.00;96.20
19813;DHT22;10066;48.108;11.448;2023-05-07T13:10:55;22.00;95.30
19813;DHT22;10066;48.108;11.448;2023-05-07T13:13:22;22.00;95.70
19813;DHT22;10066;48.108;11.448;2023-05-07T13:15:50;22.00;95.90
19813;DHT22;10066;48.108;11.448;2023-05-07T13:18:17;21.90;94.60
19813;DHT22;10066;48.108;11.448;2023-05-07T13:20:44;22.00;95.70
19813;DHT22;10066;48.108;11.448;2023-05-07T13:23:11;22.00;93.90
19813;DHT22;10066;48.108;11.448;2023-05-07T13:25:38;21.90;94.80
19813;DHT22;10066;48.108;11.448;2023-05-07T13:28:05;21.90;94.40
19813;DHT22;10066;48.108;11.448;2023-05-07T13:30:32;21.90;94.60
19813;DHT22;10066;48.108;11.448;2023-05-07T13:33:00;22.00;94.20
19813;DHT22;10066;48.108;11.448;2023-05-07T13:35:27;22.10;95.80
19813;DHT22;10066;48.108;11.448;2023-05-07T13:37:54;22.10;94.10
19813;DHT22;10066;48.108;11.448;2023-05-07T13:40:22;22.10;93.50
19813;DHT22;10066;48.108;11.448;2023-05-07T13:42:49;22.30;94.10
19813;DHT22;10066;48.108;11.448;2023-05-07T13:45:16;22.30;94.40
19813;DHT22;10066;48.108;11.448;2023-05-07T13:47:43;22.40;93.70
19813;DHT22;10066;48.108;11.448;2023-05-07T13:50:12;22.40;93.80
19813;DHT22;10066;48.108;11.448;2023-05-07T13:52:41;22.40;93.60
19813;DHT22;10066;48.108;11.448;2023-05-07T13:55:11;22.40;93.10
19813;DHT22;10066;48.108;11.448;2023-05-07T13:57:39;22.40;92.40
19813;DHT22;10066;48.108;11.448;2023-05-07T14:00:07;22.40;93.70
19813;DHT22;10066;48.108;11.448;2023-05-07T14:02:34;22.50;93.00
19813;DHT22;10066;48.108;11.448;2023-05-07T14:05:01;22.40;93.00
19813;DHT22;10066;48.108;11.448;2023-05-07T14:07:30;22.50;93.80
19813;DHT22;10066;48.108;11.448;2023-05-07T14:09:56;22.60;92.60
19813;DHT22;10066;48.108;11.448;2023-05-07T14:12:23;22.70;94.70
19813;DHT22;10066;48.108;11.448;2023-05-07T14:14:50;22.70;94.80
19813;DHT22;10066;48.108;11.448;2023-05-07T14:17:17;22.70;93.60
19813;DHT22;10066;48.108;11.448;2023-05-07T14:19:44;22.70;93.90
19813;DHT22;10066;48.108;11.448;2023-05-07T14:22:13;22.80;94.30
19813;DHT22;10066;48.108;11.448;2023-05-07T14:24:42;22.60;92.70
19813;DHT22;10066;48.108;11.448;2023-05-07T14:27:09;22.40;92.50
19813;DHT22;10066;48.108;11.448;2023-05-07T14:29:36;22.40;94.50
19813;DHT22;10066;48.108;11.448;2023-05-07T14:32:03;22.30;94.30
19813;DHT22;10066;48.108;11.448;2023-05-07T14:34:31;22.20;94.30
19813;DHT22;10066;48.108;11.448;2023-05-07T14:36:59;22.20;93.90
19813;DHT22;10066;48.108;11.448;2023-05-07T14:39:26;22.00;94.10
19813;DHT22;10066;48.108;11.448;2023-05-07T14:41:55;21.90;94.70
19813;DHT22;10066;48.108;11.448;2023-05-07T14:46:49;21.70;94.50
19813;DHT22;10066;48.108;11.448;2023-05-07T14:49:16;21.80;95.40
19813;DHT22;10066;48.108;11.448;2023-05-07T14:51:43;21.70;96.00
19813;DHT22;10066;48.108;11.448;2023-05-07T14:54:11;21.70;95.50
19813;DHT22;10066;48.108;11.448;2023-05-07T14:56:38;21.70;95.80
19813;DHT22;10066;48.108;11.448;2023-05-07T14:59:07;21.70;95.70
19813;DHT22;10066;48.108;11.448;2023-05-07T15:01:34;21.80;94.80
19813;DHT22;10066;48.108;11.448;2023-05-07T15:04:03;21.70;95.30
19813;DHT22;10066;48.108;11.448;2023-05-07T15:06:30;21.70;94.90
19813;DHT22;10066;48.108;11.448;2023-05-07T15:08:57;21.70;96.20
19813;DHT22;10066;48.108;11.448;2023-05-07T15:11:24;21.70;96.20
19813;DHT22;10066;48.108;11.448;2023-05-07T15:13:51;21.70;96.00
19813;DHT22;10066;48.108;11.448;2023-05-07T15:16:19;21.60;95.60
19813;DHT22;10066;48.108;11.448;2023-05-07T15:18:46;21.50;96.20
19813;DHT22;10066;48.108;11.448;2023-05-07T15:21:13;21.50;95.80
19813;DHT22;10066;48.108;11.448;2023-05-07T15:23:40;21.40;95.90
19813;DHT22;10066;48.108;11.448;2023-05-07T15:26:09;21.30;96.20